sensor_id;sensor_type;location;lat;lon;timestamp;P1;durP1;ratioP1;P2;durP2;ratioP2
12760;SDS011;6444;49.742;6.114;2022-12-16T00:01:11;5.80;;;4.10;;
12760;SDS011;6444;49.742;6.114;2022-12-16T00:03:37;9.67;;;4.73;;
12760;SDS011;6444;49.742;6.114;2022-12-16T00:06:04;7.33;;;4.80;;
12760;SDS011;6444;49.742;6.114;2022-12-16T00:08:31;7.00;;;4.70;;
12760;SDS011;6444;49.742;6.114;2022-12-16T00:10:58;10.43;;;5.83;;
12760;SDS011;6444;49.742;6.114;2022-12-16T00:13:24;5.70;;;3.57;;
12760;SDS011;6444;49.742;6.114;2022-12-16T00:15:51;8.77;;;3.47;;
12760;SDS011;6444;49.742;6.114;2022-12-16T00:18:18;4.10;;;2.90;;
12760;SDS011;6444;49.742;6.114;2022-12-16T00:20:45;4.67;;;2.90;;
12760;SDS011;6444;49.742;6.114;2022-12-16T00:23:14;7.17;;;3.37;;
12760;SDS011;6444;49.742;6.114;2022-12-16T00:25:43;5.47;;;3.53;;
12760;SDS011;6444;49.742;6.114;2022-12-16T00:28:11;7.90;;;3.40;;
12760;SDS011;6444;49.742;6.114;2022-12-16T00:30:37;6.47;;;4.00;;
12760;SDS011;6444;49.742;6.114;2022-12-16T00:33:04;4.87;;;3.20;;
12760;SDS011;6444;49.742;6.114;2022-12-16T00:35:31;10.13;;;4.00;;
12760;SDS011;6444;49.742;6.114;2022-12-16T00:37:58;5.13;;;3.47;;
12760;SDS011;6444;49.742;6.114;2022-12-16T00:40:24;25.95;;;14.00;;
12760;SDS011;6444;49.742;6.114;2022-12-16T00:42:51;15.67;;;7.40;;
12760;SDS011;6444;49.742;6.114;2022-12-16T00:45:18;19.47;;;7.77;;
12760;SDS011;6444;49.742;6.114;2022-12-16T00:47:45;13.20;;;8.43;;
12760;SDS011;6444;49.742;6.114;2022-12-16T00:50:12;11.70;;;6.27;;
12760;SDS011;6444;49.742;6.114;2022-12-16T00:52:38;9.97;;;5.77;;
12760;SDS011;6444;49.742;6.114;2022-12-16T00:55:05;12.20;;;5.70;;
12760;SDS011;6444;49.742;6.114;2022-12-16T00:57:32;6.47;;;4.17;;
12760;SDS011;6444;49.742;6.114;2022-12-16T00:59:59;10.17;;;4.80;;
12760;SDS011;6444;49.742;6.114;2022-12-16T01:02:26;11.03;;;6.47;;
12760;SDS011;6444;49.742;6.114;2022-12-16T01:04:52;9.63;;;4.90;;
12760;SDS011;6444;49.742;6.114;2022-12-16T01:07:19;7.00;;;5.30;;
12760;SDS011;6444;49.742;6.114;2022-12-16T01:09:46;9.90;;;6.07;;
12760;SDS011;6444;49.742;6.114;2022-12-16T01:12:13;9.53;;;5.67;;
12760;SDS011;6444;49.742;6.114;2022-12-16T01:14:39;8.07;;;5.20;;
12760;SDS011;6444;49.742;6.114;2022-12-16T01:17:07;10.10;;;5.43;;
12760;SDS011;6444;49.742;6.114;2022-12-16T01:19:33;6.53;;;3.93;;
12760;SDS011;6444;49.742;6.114;2022-12-16T01:22:00;8.30;;;4.10;;
12760;SDS011;6444;49.742;6.114;2022-12-16T01:24:27;5.50;;;3.40;;
12760;SDS011;6444;49.742;6.114;2022-12-16T01:26:53;6.20;;;3.40;;
12760;SDS011;6444;49.742;6.114;2022-12-16T01:29:20;6.20;;;3.73;;
12760;SDS011;6444;49.742;6.114;2022-12-16T01:31:47;6.33;;;3.07;;
12760;SDS011;6444;49.742;6.114;2022-12-16T01:34:14;6.23;;;3.50;;
12760;SDS011;6444;49.742;6.114;2022-12-16T01:36:41;4.63;;;2.83;;
12760;SDS011;6444;49.742;6.114;2022-12-16T01:39:10;4.93;;;2.90;;
12760;SDS011;6444;49.742;6.114;2022-12-16T01:41:37;7.97;;;3.73;;
12760;SDS011;6444;49.742;6.114;2022-12-16T01:44:13;5.97;;;3.73;;
12760;SDS011;6444;49.742;6.114;2022-12-16T01:46:48;9.05;;;5.93;;
12760;SDS011;6444;49.742;6.114;2022-12-16T01:49:15;6.50;;;3.83;;
12760;SDS011;6444;49.742;6.114;2022-12-16T01:51:39;5.03;;;3.67;;
12760;SDS011;6444;49.742;6.114;2022-12-16T01:54:07;4.43;;;3.03;;
12760;SDS011;6444;49.742;6.114;2022-12-16T01:56:37;5.63;;;3.60;;
12760;SDS011;6444;49.742;6.114;2022-12-16T01:59:03;5.63;;;3.10;;
12760;SDS011;6444;49.742;6.114;2022-12-16T02:01:29;5.93;;;3.23;;
12760;SDS011;6444;49.742;6.114;2022-12-16T02:03:56;4.53;;;3.00;;
12760;SDS011;6444;49.742;6.114;2022-12-16T02:06:23;5.63;;;3.23;;
12760;SDS011;6444;49.742;6.114;2022-12-16T02:08:50;5.87;;;3.47;;
12760;SDS011;6444;49.742;6.114;2022-12-16T02:16:18;5.23;;;3.50;;
12760;SDS011;6444;49.742;6.114;2022-12-16T02:24:10;6.03;;;3.73;;
12760;SDS011;6444;49.742;6.114;2022-12-16T02:32:20;5.87;;;3.63;;
12760;SDS011;6444;49.742;6.114;2022-12-16T02:35:11;6.53;;;3.70;;
12760;SDS011;6444;49.742;6.114;2022-12-16T02:40:25;5.57;;;3.27;;
12760;SDS011;6444;49.742;6.114;2022-12-16T02:42:52;5.40;;;3.40;;
12760;SDS011;6444;49.742;6.114;2022-12-16T02:45:17;4.60;;;3.03;;
12760;SDS011;6444;49.742;6.114;2022-12-16T02:47:44;8.90;;;4.00;;
12760;SDS011;6444;49.742;6.114;2022-12-16T02:50:34;5.17;;;4.10;;
12760;SDS011;6444;49.742;6.114;2022-12-16T02:52:53;5.90;;;4.47;;
12760;SDS011;6444;49.742;6.114;2022-12-16T02:58:15;7.37;;;3.90;;
12760;SDS011;6444;49.742;6.114;2022-12-16T03:00:43;5.73;;;3.70;;
12760;SDS011;6444;49.742;6.114;2022-12-16T03:03:10;10.03;;;6.50;;
12760;SDS011;6444;49.742;6.114;2022-12-16T03:05:38;8.37;;;5.07;;
12760;SDS011;6444;49.742;6.114;2022-12-16T03:08:08;8.17;;;4.30;;
12760;SDS011;6444;49.742;6.114;2022-12-16T03:10:34;6.20;;;4.13;;
12760;SDS011;6444;49.742;6.114;2022-12-16T03:13:00;9.47;;;7.10;;
12760;SDS011;6444;49.742;6.114;2022-12-16T03:15:27;7.00;;;4.90;;
12760;SDS011;6444;49.742;6.114;2022-12-16T03:17:53;5.70;;;4.07;;
12760;SDS011;6444;49.742;6.114;2022-12-16T03:20:27;6.40;;;4.37;;
12760;SDS011;6444;49.742;6.114;2022-12-16T03:22:53;7.67;;;4.57;;
12760;SDS011;6444;49.742;6.114;2022-12-16T03:25:19;7.23;;;4.83;;
12760;SDS011;6444;49.742;6.114;2022-12-16T03:27:48;6.87;;;3.93;;
12760;SDS011;6444;49.742;6.114;2022-12-16T03:30:28;6.27;;;3.80;;
12760;SDS011;6444;49.742;6.114;2022-12-16T03:32:57;5.67;;;3.90;;
12760;SDS011;6444;49.742;6.114;2022-12-16T03:35:30;5.07;;;3.97;;
12760;SDS011;6444;49.742;6.114;2022-12-16T03:37:58;9.45;;;6.45;;
12760;SDS011;6444;49.742;6.114;2022-12-16T03:40:25;7.60;;;5.13;;
12760;SDS011;6444;49.742;6.114;2022-12-16T03:42:51;6.53;;;4.50;;
12760;SDS011;6444;49.742;6.114;2022-12-16T03:45:21;7.73;;;3.97;;
12760;SDS011;6444;49.742;6.114;2022-12-16T03:47:49;7.23;;;4.27;;
12760;SDS011;6444;49.742;6.114;2022-12-16T03:50:16;9.67;;;5.73;;
12760;SDS011;6444;49.742;6.114;2022-12-16T03:52:42;6.83;;;4.30;;
12760;SDS011;6444;49.742;6.114;2022-12-16T03:55:08;7.03;;;4.37;;
12760;SDS011;6444;49.742;6.114;2022-12-16T03:57:35;8.10;;;4.33;;
12760;SDS011;6444;49.742;6.114;2022-12-16T04:00:02;7.67;;;4.40;;
12760;SDS011;6444;49.742;6.114;2022-12-16T04:02:28;9.27;;;5.23;;
12760;SDS011;6444;49.742;6.114;2022-12-16T04:04:55;8.93;;;5.97;;
12760;SDS011;6444;49.742;6.114;2022-12-16T04:07:22;15.50;;;10.37;;
12760;SDS011;6444;49.742;6.114;2022-12-16T04:09:49;10.23;;;6.63;;
12760;SDS011;6444;49.742;6.114;2022-12-16T04:12:15;9.27;;;6.27;;
12760;SDS011;6444;49.742;6.114;2022-12-16T04:15:00;8.80;;;5.63;;
12760;SDS011;6444;49.742;6.114;2022-12-16T04:17:45;13.60;;;9.10;;
12760;SDS011;6444;49.742;6.114;2022-12-16T04:20:37;12.87;;;8.80;;
12760;SDS011;6444;49.742;6.114;2022-12-16T04:23:21;14.30;;;9.90;;
12760;SDS011;6444;49.742;6.114;2022-12-16T04:25:53;13.85;;;10.38;;
12760;SDS011;6444;49.742;6.114;2022-12-16T04:28:20;11.67;;;7.67;;
12760;SDS011;6444;49.742;6.114;2022-12-16T04:30:47;11.23;;;6.23;;
12760;SDS011;6444;49.742;6.114;2022-12-16T04:33:13;9.30;;;6.43;;
12760;SDS011;6444;49.742;6.114;2022-12-16T04:35:58;12.73;;;6.60;;
12760;SDS011;6444;49.742;6.114;2022-12-16T04:38:42;12.37;;;6.50;;
12760;SDS011;6444;49.742;6.114;2022-12-16T04:41:28;10.87;;;5.90;;
12760;SDS011;6444;49.742;6.114;2022-12-16T04:44:13;12.20;;;5.97;;
12760;SDS011;6444;49.742;6.114;2022-12-16T04:46:58;9.87;;;4.80;;
12760;SDS011;6444;49.742;6.114;2022-12-16T04:49:43;8.40;;;4.87;;
12760;SDS011;6444;49.742;6.114;2022-12-16T04:52:28;8.53;;;4.60;;
12760;SDS011;6444;49.742;6.114;2022-12-16T04:55:12;6.77;;;4.53;;
12760;SDS011;6444;49.742;6.114;2022-12-16T04:57:59;7.30;;;4.63;;
12760;SDS011;6444;49.742;6.114;2022-12-16T05:00:43;10.83;;;5.17;;
12760;SDS011;6444;49.742;6.114;2022-12-16T05:03:28;7.90;;;4.80;;
12760;SDS011;6444;49.742;6.114;2022-12-16T05:06:13;8.00;;;4.07;;
12760;SDS011;6444;49.742;6.114;2022-12-16T05:08:58;6.70;;;4.40;;
12760;SDS011;6444;49.742;6.114;2022-12-16T05:11:42;8.37;;;4.47;;
12760;SDS011;6444;49.742;6.114;2022-12-16T05:14:27;8.10;;;4.50;;
12760;SDS011;6444;49.742;6.114;2022-12-16T05:17:11;8.70;;;4.30;;
12760;SDS011;6444;49.742;6.114;2022-12-16T05:19:56;8.07;;;5.13;;
12760;SDS011;6444;49.742;6.114;2022-12-16T05:22:41;8.50;;;4.90;;
12760;SDS011;6444;49.742;6.114;2022-12-16T05:25:25;8.43;;;5.40;;
12760;SDS011;6444;49.742;6.114;2022-12-16T05:28:10;8.70;;;4.97;;
12760;SDS011;6444;49.742;6.114;2022-12-16T05:30:55;8.30;;;4.80;;
12760;SDS011;6444;49.742;6.114;2022-12-16T05:33:39;8.00;;;4.23;;
12760;SDS011;6444;49.742;6.114;2022-12-16T05:36:25;6.90;;;4.70;;
12760;SDS011;6444;49.742;6.114;2022-12-16T05:39:09;7.93;;;4.47;;
12760;SDS011;6444;49.742;6.114;2022-12-16T05:41:54;11.32;;;7.85;;
12760;SDS011;6444;49.742;6.114;2022-12-16T05:44:39;10.33;;;5.70;;
12760;SDS011;6444;49.742;6.114;2022-12-16T05:47:24;9.07;;;4.87;;
12760;SDS011;6444;49.742;6.114;2022-12-16T05:49:56;7.50;;;4.83;;
12760;SDS011;6444;49.742;6.114;2022-12-16T05:52:47;8.27;;;4.90;;
12760;SDS011;6444;49.742;6.114;2022-12-16T05:55:25;6.37;;;4.47;;
12760;SDS011;6444;49.742;6.114;2022-12-16T05:58:10;7.47;;;4.70;;
12760;SDS011;6444;49.742;6.114;2022-12-16T06:00:55;6.07;;;4.77;;
12760;SDS011;6444;49.742;6.114;2022-12-16T06:03:40;10.17;;;5.10;;
12760;SDS011;6444;49.742;6.114;2022-12-16T06:06:25;7.37;;;4.23;;
12760;SDS011;6444;49.742;6.114;2022-12-16T06:09:09;10.33;;;4.60;;
12760;SDS011;6444;49.742;6.114;2022-12-16T06:11:55;7.40;;;4.90;;
12760;SDS011;6444;49.742;6.114;2022-12-16T06:14:40;10.17;;;5.37;;
12760;SDS011;6444;49.742;6.114;2022-12-16T06:17:25;7.47;;;4.93;;
12760;SDS011;6444;49.742;6.114;2022-12-16T06:20:09;11.53;;;6.50;;
12760;SDS011;6444;49.742;6.114;2022-12-16T06:22:54;10.60;;;5.20;;
12760;SDS011;6444;49.742;6.114;2022-12-16T06:25:40;15.93;;;7.00;;
12760;SDS011;6444;49.742;6.114;2022-12-16T06:28:25;16.30;;;7.20;;
12760;SDS011;6444;49.742;6.114;2022-12-16T06:31:04;9.93;;;5.73;;
12760;SDS011;6444;49.742;6.114;2022-12-16T06:33:48;8.93;;;5.33;;
12760;SDS011;6444;49.742;6.114;2022-12-16T06:36:33;10.57;;;5.63;;
12760;SDS011;6444;49.742;6.114;2022-12-16T06:39:18;13.93;;;7.07;;
12760;SDS011;6444;49.742;6.114;2022-12-16T06:42:03;12.87;;;6.13;;
12760;SDS011;6444;49.742;6.114;2022-12-16T06:44:38;8.63;;;5.20;;
12760;SDS011;6444;49.742;6.114;2022-12-16T06:47:24;14.37;;;5.83;;
12760;SDS011;6444;49.742;6.114;2022-12-16T06:50:08;8.37;;;4.83;;
12760;SDS011;6444;49.742;6.114;2022-12-16T06:52:53;9.40;;;5.93;;
12760;SDS011;6444;49.742;6.114;2022-12-16T06:55:38;11.07;;;6.43;;
12760;SDS011;6444;49.742;6.114;2022-12-16T06:58:23;11.60;;;6.03;;
12760;SDS011;6444;49.742;6.114;2022-12-16T07:01:08;12.53;;;7.77;;
12760;SDS011;6444;49.742;6.114;2022-12-16T07:03:52;18.67;;;9.63;;
12760;SDS011;6444;49.742;6.114;2022-12-16T07:06:37;16.83;;;9.30;;
12760;SDS011;6444;49.742;6.114;2022-12-16T07:09:22;22.47;;;9.03;;
12760;SDS011;6444;49.742;6.114;2022-12-16T07:12:10;18.60;;;8.20;;
12760;SDS011;6444;49.742;6.114;2022-12-16T07:14:54;18.87;;;9.67;;
12760;SDS011;6444;49.742;6.114;2022-12-16T07:17:39;13.90;;;6.97;;
12760;SDS011;6444;49.742;6.114;2022-12-16T07:20:25;11.13;;;6.67;;
12760;SDS011;6444;49.742;6.114;2022-12-16T07:23:09;25.83;;;8.60;;
12760;SDS011;6444;49.742;6.114;2022-12-16T07:25:54;14.17;;;6.90;;
12760;SDS011;6444;49.742;6.114;2022-12-16T07:28:39;15.83;;;8.43;;
12760;SDS011;6444;49.742;6.114;2022-12-16T07:31:23;15.53;;;8.50;;
12760;SDS011;6444;49.742;6.114;2022-12-16T07:34:08;13.57;;;7.67;;
12760;SDS011;6444;49.742;6.114;2022-12-16T07:36:54;14.73;;;9.77;;
12760;SDS011;6444;49.742;6.114;2022-12-16T07:39:38;18.13;;;9.17;;
12760;SDS011;6444;49.742;6.114;2022-12-16T07:42:23;17.87;;;8.77;;
12760;SDS011;6444;49.742;6.114;2022-12-16T07:45:08;17.23;;;11.73;;
12760;SDS011;6444;49.742;6.114;2022-12-16T07:47:53;16.77;;;10.90;;
12760;SDS011;6444;49.742;6.114;2022-12-16T07:50:37;25.00;;;16.20;;
12760;SDS011;6444;49.742;6.114;2022-12-16T07:53:22;18.13;;;11.20;;
12760;SDS011;6444;49.742;6.114;2022-12-16T07:56:07;23.35;;;16.12;;
12760;SDS011;6444;49.742;6.114;2022-12-16T07:58:51;17.70;;;11.33;;
12760;SDS011;6444;49.742;6.114;2022-12-16T08:01:36;24.40;;;15.13;;
12760;SDS011;6444;49.742;6.114;2022-12-16T08:04:23;22.15;;;14.38;;
12760;SDS011;6444;49.742;6.114;2022-12-16T08:07:07;19.63;;;11.77;;
12760;SDS011;6444;49.742;6.114;2022-12-16T08:09:52;19.43;;;11.33;;
12760;SDS011;6444;49.742;6.114;2022-12-16T08:12:36;14.20;;;9.47;;
12760;SDS011;6444;49.742;6.114;2022-12-16T08:15:21;13.10;;;7.07;;
12760;SDS011;6444;49.742;6.114;2022-12-16T08:18:06;12.07;;;6.67;;
12760;SDS011;6444;49.742;6.114;2022-12-16T08:20:51;14.20;;;6.63;;
12760;SDS011;6444;49.742;6.114;2022-12-16T08:23:36;14.03;;;8.10;;
12760;SDS011;6444;49.742;6.114;2022-12-16T08:26:21;28.30;;;11.50;;
12760;SDS011;6444;49.742;6.114;2022-12-16T08:29:07;31.58;;;26.98;;
12760;SDS011;6444;49.742;6.114;2022-12-16T08:31:51;24.17;;;17.73;;
12760;SDS011;6444;49.742;6.114;2022-12-16T08:34:36;14.07;;;8.00;;
12760;SDS011;6444;49.742;6.114;2022-12-16T08:37:21;14.33;;;8.80;;
12760;SDS011;6444;49.742;6.114;2022-12-16T08:40:06;10.00;;;7.10;;
12760;SDS011;6444;49.742;6.114;2022-12-16T08:42:51;11.07;;;6.80;;
12760;SDS011;6444;49.742;6.114;2022-12-16T08:45:35;7.90;;;5.80;;
12760;SDS011;6444;49.742;6.114;2022-12-16T08:48:21;9.30;;;5.43;;
12760;SDS011;6444;49.742;6.114;2022-12-16T08:51:06;8.47;;;5.30;;
12760;SDS011;6444;49.742;6.114;2022-12-16T08:53:51;15.83;;;9.40;;
12760;SDS011;6444;49.742;6.114;2022-12-16T08:56:36;9.60;;;6.80;;
12760;SDS011;6444;49.742;6.114;2022-12-16T08:59:20;6.70;;;4.70;;
12760;SDS011;6444;49.742;6.114;2022-12-16T09:02:05;8.37;;;4.50;;
12760;SDS011;6444;49.742;6.114;2022-12-16T09:04:50;6.37;;;4.10;;
12760;SDS011;6444;49.742;6.114;2022-12-16T09:07:34;6.67;;;4.90;;
12760;SDS011;6444;49.742;6.114;2022-12-16T09:10:19;6.47;;;5.10;;
12760;SDS011;6444;49.742;6.114;2022-12-16T09:13:06;6.20;;;4.53;;
12760;SDS011;6444;49.742;6.114;2022-12-16T09:15:48;5.87;;;3.80;;
12760;SDS011;6444;49.742;6.114;2022-12-16T09:18:33;6.87;;;4.85;;
12760;SDS011;6444;49.742;6.114;2022-12-16T09:21:18;6.27;;;3.80;;
12760;SDS011;6444;49.742;6.114;2022-12-16T09:24:02;5.40;;;4.50;;
12760;SDS011;6444;49.742;6.114;2022-12-16T09:26:47;6.13;;;4.37;;
12760;SDS011;6444;49.742;6.114;2022-12-16T09:29:32;7.47;;;6.60;;
12760;SDS011;6444;49.742;6.114;2022-12-16T09:32:20;8.63;;;4.43;;
12760;SDS011;6444;49.742;6.114;2022-12-16T09:35:05;6.87;;;4.53;;
12760;SDS011;6444;49.742;6.114;2022-12-16T09:37:50;4.37;;;3.60;;
12760;SDS011;6444;49.742;6.114;2022-12-16T09:40:36;5.33;;;4.37;;
12760;SDS011;6444;49.742;6.114;2022-12-16T09:46:39;11.37;;;4.90;;
12760;SDS011;6444;49.742;6.114;2022-12-16T09:52:54;8.63;;;5.47;;
12760;SDS011;6444;49.742;6.114;2022-12-16T09:55:25;12.00;;;7.97;;
12760;SDS011;6444;49.742;6.114;2022-12-16T09:58:12;10.47;;;5.97;;
12760;SDS011;6444;49.742;6.114;2022-12-16T10:00:57;11.13;;;7.90;;
12760;SDS011;6444;49.742;6.114;2022-12-16T10:03:42;10.50;;;6.90;;
12760;SDS011;6444;49.742;6.114;2022-12-16T10:06:31;12.73;;;7.00;;
12760;SDS011;6444;49.742;6.114;2022-12-16T10:12:07;16.60;;;7.87;;
12760;SDS011;6444;49.742;6.114;2022-12-16T10:15:25;8.73;;;6.97;;
12760;SDS011;6444;49.742;6.114;2022-12-16T10:21:54;15.03;;;8.27;;
12760;SDS011;6444;49.742;6.114;2022-12-16T10:24:43;12.33;;;8.93;;
12760;SDS011;6444;49.742;6.114;2022-12-16T10:30:22;15.70;;;8.30;;
12760;SDS011;6444;49.742;6.114;2022-12-16T10:33:08;12.37;;;8.63;;
12760;SDS011;6444;49.742;6.114;2022-12-16T10:35:50;15.77;;;8.47;;
12760;SDS011;6444;49.742;6.114;2022-12-16T10:41:18;18.57;;;11.60;;
12760;SDS011;6444;49.742;6.114;2022-12-16T10:44:05;15.57;;;10.30;;
12760;SDS011;6444;49.742;6.114;2022-12-16T10:46:48;12.47;;;8.77;;
12760;SDS011;6444;49.742;6.114;2022-12-16T10:49:33;16.48;;;11.00;;
12760;SDS011;6444;49.742;6.114;2022-12-16T10:52:17;13.30;;;8.83;;
12760;SDS011;6444;49.742;6.114;2022-12-16T10:55:11;14.70;;;9.10;;
12760;SDS011;6444;49.742;6.114;2022-12-16T10:57:59;15.60;;;11.43;;
12760;SDS011;6444;49.742;6.114;2022-12-16T11:00:42;12.40;;;8.90;;
12760;SDS011;6444;49.742;6.114;2022-12-16T11:03:32;16.00;;;10.85;;
12760;SDS011;6444;49.742;6.114;2022-12-16T11:05:58;12.03;;;8.80;;
12760;SDS011;6444;49.742;6.114;2022-12-16T11:08:43;12.50;;;7.97;;
12760;SDS011;6444;49.742;6.114;2022-12-16T11:11:29;13.30;;;7.80;;
12760;SDS011;6444;49.742;6.114;2022-12-16T11:14:26;11.60;;;7.40;;
12760;SDS011;6444;49.742;6.114;2022-12-16T11:20:06;11.13;;;7.93;;
12760;SDS011;6444;49.742;6.114;2022-12-16T11:23:06;12.23;;;7.50;;
12760;SDS011;6444;49.742;6.114;2022-12-16T11:26:03;10.00;;;6.83;;
12760;SDS011;6444;49.742;6.114;2022-12-16T11:31:55;9.73;;;6.37;;
12760;SDS011;6444;49.742;6.114;2022-12-16T11:34:42;11.67;;;7.00;;
12760;SDS011;6444;49.742;6.114;2022-12-16T11:37:26;10.07;;;6.37;;
12760;SDS011;6444;49.742;6.114;2022-12-16T11:40:14;10.57;;;6.83;;
12760;SDS011;6444;49.742;6.114;2022-12-16T11:43:02;9.60;;;6.73;;
12760;SDS011;6444;49.742;6.114;2022-12-16T11:45:47;8.20;;;5.60;;
12760;SDS011;6444;49.742;6.114;2022-12-16T11:49:18;9.10;;;5.90;;
12760;SDS011;6444;49.742;6.114;2022-12-16T11:51:22;9.95;;;7.37;;
12760;SDS011;6444;49.742;6.114;2022-12-16T11:56:51;9.03;;;5.53;;
12760;SDS011;6444;49.742;6.114;2022-12-16T12:02:54;8.93;;;5.60;;
12760;SDS011;6444;49.742;6.114;2022-12-16T12:05:38;6.53;;;4.93;;
12760;SDS011;6444;49.742;6.114;2022-12-16T12:11:34;7.20;;;5.47;;
12760;SDS011;6444;49.742;6.114;2022-12-16T12:14:27;11.40;;;6.03;;
12760;SDS011;6444;49.742;6.114;2022-12-16T12:17:51;13.53;;;6.13;;
12760;SDS011;6444;49.742;6.114;2022-12-16T12:20:08;10.40;;;6.60;;
12760;SDS011;6444;49.742;6.114;2022-12-16T12:22:50;8.50;;;5.80;;
12760;SDS011;6444;49.742;6.114;2022-12-16T12:25:46;9.13;;;5.93;;
12760;SDS011;6444;49.742;6.114;2022-12-16T12:28:35;6.73;;;4.70;;
12760;SDS011;6444;49.742;6.114;2022-12-16T12:31:29;7.37;;;4.87;;
12760;SDS011;6444;49.742;6.114;2022-12-16T12:34:14;6.43;;;4.43;;
12760;SDS011;6444;49.742;6.114;2022-12-16T12:46:14;4.13;;;3.20;;
12760;SDS011;6444;49.742;6.114;2022-12-16T12:51:47;5.57;;;3.45;;
12760;SDS011;6444;49.742;6.114;2022-12-16T12:54:42;6.83;;;2.97;;
12760;SDS011;6444;49.742;6.114;2022-12-16T12:57:29;5.33;;;3.30;;
12760;SDS011;6444;49.742;6.114;2022-12-16T13:00:15;5.47;;;3.27;;
12760;SDS011;6444;49.742;6.114;2022-12-16T13:03:00;4.87;;;3.20;;
12760;SDS011;6444;49.742;6.114;2022-12-16T13:05:44;5.83;;;3.23;;
12760;SDS011;6444;49.742;6.114;2022-12-16T13:08:29;8.97;;;5.10;;
12760;SDS011;6444;49.742;6.114;2022-12-16T13:11:16;5.60;;;3.57;;
12760;SDS011;6444;49.742;6.114;2022-12-16T13:14:00;4.83;;;3.10;;
12760;SDS011;6444;49.742;6.114;2022-12-16T13:16:55;6.35;;;4.00;;
12760;SDS011;6444;49.742;6.114;2022-12-16T13:19:44;6.10;;;3.77;;
12760;SDS011;6444;49.742;6.114;2022-12-16T13:22:29;6.53;;;4.60;;
12760;SDS011;6444;49.742;6.114;2022-12-16T13:28:37;7.33;;;4.30;;
12760;SDS011;6444;49.742;6.114;2022-12-16T13:31:21;4.23;;;3.13;;
12760;SDS011;6444;49.742;6.114;2022-12-16T13:34:17;4.80;;;3.63;;
12760;SDS011;6444;49.742;6.114;2022-12-16T13:37:03;6.53;;;3.83;;
12760;SDS011;6444;49.742;6.114;2022-12-16T13:40:04;8.93;;;3.20;;
12760;SDS011;6444;49.742;6.114;2022-12-16T13:42:48;8.77;;;5.07;;
12760;SDS011;6444;49.742;6.114;2022-12-16T13:45:34;5.53;;;4.27;;
12760;SDS011;6444;49.742;6.114;2022-12-16T13:48:52;6.03;;;4.30;;
12760;SDS011;6444;49.742;6.114;2022-12-16T13:57:07;5.97;;;3.47;;
12760;SDS011;6444;49.742;6.114;2022-12-16T13:59:51;4.57;;;2.93;;
12760;SDS011;6444;49.742;6.114;2022-12-16T14:02:40;4.10;;;3.37;;
12760;SDS011;6444;49.742;6.114;2022-12-16T14:05:27;5.00;;;2.87;;
12760;SDS011;6444;49.742;6.114;2022-12-16T14:08:11;5.20;;;4.30;;
12760;SDS011;6444;49.742;6.114;2022-12-16T14:10:59;5.47;;;2.97;;
12760;SDS011;6444;49.742;6.114;2022-12-16T14:13:43;6.60;;;4.27;;
12760;SDS011;6444;49.742;6.114;2022-12-16T14:19:53;2.87;;;2.30;;
12760;SDS011;6444;49.742;6.114;2022-12-16T14:25:49;3.93;;;2.13;;
12760;SDS011;6444;49.742;6.114;2022-12-16T14:28:34;2.77;;;1.90;;
12760;SDS011;6444;49.742;6.114;2022-12-16T14:31:25;4.47;;;1.77;;
12760;SDS011;6444;49.742;6.114;2022-12-16T14:34:16;7.83;;;5.13;;
12760;SDS011;6444;49.742;6.114;2022-12-16T14:37:06;5.25;;;2.95;;
12760;SDS011;6444;49.742;6.114;2022-12-16T14:39:56;3.30;;;2.00;;
12760;SDS011;6444;49.742;6.114;2022-12-16T14:42:44;2.90;;;2.20;;
12760;SDS011;6444;49.742;6.114;2022-12-16T14:45:32;6.10;;;2.00;;
12760;SDS011;6444;49.742;6.114;2022-12-16T14:54:21;3.03;;;1.43;;
12760;SDS011;6444;49.742;6.114;2022-12-16T14:57:12;3.57;;;3.23;;
12760;SDS011;6444;49.742;6.114;2022-12-16T15:02:46;4.47;;;3.37;;
12760;SDS011;6444;49.742;6.114;2022-12-16T15:05:32;6.83;;;4.53;;
12760;SDS011;6444;49.742;6.114;2022-12-16T15:08:16;5.63;;;2.40;;
12760;SDS011;6444;49.742;6.114;2022-12-16T15:11:01;5.70;;;2.67;;
12760;SDS011;6444;49.742;6.114;2022-12-16T15:13:46;3.83;;;2.27;;
12760;SDS011;6444;49.742;6.114;2022-12-16T15:16:31;4.47;;;2.90;;
12760;SDS011;6444;49.742;6.114;2022-12-16T15:19:17;2.20;;;2.00;;
12760;SDS011;6444;49.742;6.114;2022-12-16T15:22:00;4.90;;;1.77;;
12760;SDS011;6444;49.742;6.114;2022-12-16T15:24:45;2.57;;;1.70;;
12760;SDS011;6444;49.742;6.114;2022-12-16T15:27:34;5.20;;;2.65;;
12760;SDS011;6444;49.742;6.114;2022-12-16T15:33:18;6.53;;;2.17;;
12760;SDS011;6444;49.742;6.114;2022-12-16T15:36:02;4.13;;;1.97;;
12760;SDS011;6444;49.742;6.114;2022-12-16T15:38:47;3.33;;;1.90;;
12760;SDS011;6444;49.742;6.114;2022-12-16T15:41:32;2.73;;;1.93;;
12760;SDS011;6444;49.742;6.114;2022-12-16T15:44:18;5.70;;;2.10;;
12760;SDS011;6444;49.742;6.114;2022-12-16T15:47:03;2.53;;;1.60;;
12760;SDS011;6444;49.742;6.114;2022-12-16T15:49:47;3.93;;;1.70;;
12760;SDS011;6444;49.742;6.114;2022-12-16T15:52:36;3.27;;;1.80;;
12760;SDS011;6444;49.742;6.114;2022-12-16T15:55:28;2.73;;;1.80;;
12760;SDS011;6444;49.742;6.114;2022-12-16T15:58:30;1.73;;;1.60;;
12760;SDS011;6444;49.742;6.114;2022-12-16T16:01:17;6.35;;;3.12;;
12760;SDS011;6444;49.742;6.114;2022-12-16T16:03:59;7.13;;;2.77;;
12760;SDS011;6444;49.742;6.114;2022-12-16T16:06:46;5.30;;;2.23;;
12760;SDS011;6444;49.742;6.114;2022-12-16T16:09:24;3.37;;;2.20;;
12760;SDS011;6444;49.742;6.114;2022-12-16T16:12:11;4.53;;;2.17;;
12760;SDS011;6444;49.742;6.114;2022-12-16T16:14:54;3.20;;;1.90;;
12760;SDS011;6444;49.742;6.114;2022-12-16T16:17:39;3.17;;;2.00;;
12760;SDS011;6444;49.742;6.114;2022-12-16T16:20:24;3.60;;;2.20;;
12760;SDS011;6444;49.742;6.114;2022-12-16T16:23:09;6.43;;;3.70;;
12760;SDS011;6444;49.742;6.114;2022-12-16T16:25:54;4.70;;;2.77;;
12760;SDS011;6444;49.742;6.114;2022-12-16T16:28:39;11.80;;;7.77;;
12760;SDS011;6444;49.742;6.114;2022-12-16T16:31:23;41.60;;;18.87;;
12760;SDS011;6444;49.742;6.114;2022-12-16T16:34:08;51.87;;;24.60;;
12760;SDS011;6444;49.742;6.114;2022-12-16T16:36:53;27.90;;;14.53;;
12760;SDS011;6444;49.742;6.114;2022-12-16T16:39:38;8.30;;;6.23;;
12760;SDS011;6444;49.742;6.114;2022-12-16T16:42:22;5.00;;;3.37;;
12760;SDS011;6444;49.742;6.114;2022-12-16T16:45:08;8.82;;;4.90;;
12760;SDS011;6444;49.742;6.114;2022-12-16T16:47:54;3.23;;;2.80;;
12760;SDS011;6444;49.742;6.114;2022-12-16T16:50:38;6.57;;;3.50;;
12760;SDS011;6444;49.742;6.114;2022-12-16T16:53:23;3.70;;;2.77;;
12760;SDS011;6444;49.742;6.114;2022-12-16T16:56:08;5.20;;;2.80;;
12760;SDS011;6444;49.742;6.114;2022-12-16T16:58:53;4.57;;;2.80;;
12760;SDS011;6444;49.742;6.114;2022-12-16T17:01:37;3.10;;;2.53;;
12760;SDS011;6444;49.742;6.114;2022-12-16T17:04:22;3.50;;;2.60;;
12760;SDS011;6444;49.742;6.114;2022-12-16T17:07:07;7.22;;;3.90;;
12760;SDS011;6444;49.742;6.114;2022-12-16T17:09:51;5.77;;;3.57;;
12760;SDS011;6444;49.742;6.114;2022-12-16T17:12:36;9.17;;;5.77;;
12760;SDS011;6444;49.742;6.114;2022-12-16T17:15:22;5.77;;;3.10;;
12760;SDS011;6444;49.742;6.114;2022-12-16T17:18:06;5.80;;;3.27;;
12760;SDS011;6444;49.742;6.114;2022-12-16T17:20:51;5.13;;;2.97;;
12760;SDS011;6444;49.742;6.114;2022-12-16T17:23:36;5.80;;;3.37;;
12760;SDS011;6444;49.742;6.114;2022-12-16T17:26:20;5.83;;;3.40;;
12760;SDS011;6444;49.742;6.114;2022-12-16T17:29:05;4.13;;;2.40;;
12760;SDS011;6444;49.742;6.114;2022-12-16T17:31:50;3.70;;;2.50;;
12760;SDS011;6444;49.742;6.114;2022-12-16T17:34:34;4.93;;;2.80;;
12760;SDS011;6444;49.742;6.114;2022-12-16T17:37:19;4.77;;;3.13;;
12760;SDS011;6444;49.742;6.114;2022-12-16T17:40:04;3.90;;;2.87;;
12760;SDS011;6444;49.742;6.114;2022-12-16T17:42:50;4.87;;;3.17;;
12760;SDS011;6444;49.742;6.114;2022-12-16T17:45:35;4.63;;;3.30;;
12760;SDS011;6444;49.742;6.114;2022-12-16T17:48:20;9.43;;;3.43;;
12760;SDS011;6444;49.742;6.114;2022-12-16T17:51:05;5.70;;;4.63;;
12760;SDS011;6444;49.742;6.114;2022-12-16T17:53:49;8.77;;;4.83;;